Terminal Aerodrome Forecast
Issued by NWS

Home | Current Version | Previous Version | Text Only | Print | Product List | Glossary On
Versions: 1 2 3 4 5 6 7 8 9 10 11 12 13 14
000
FTUS44 KLZK 271100
TAFHRO
TAF
KHRO 271125Z 2712/2812 16005KT 5SM -DZ BR BKN001 OVC025
      TEMPO 2712/2714 2SM BR BKN025
     FM271400 32008KT P6SM VCSH BKN015 OVC025
     FM272100 34009KT P6SM BKN035 OVC060
     FM280100 34009KT P6SM VCSH BKN035
     FM281000 35007KT P6SM BKN010=

USA.gov is the U.S. government's official web portal to all federal, state and local government web resources and services.